Data for 01/05/2013

Time Sea-Level Adjusted Pressure Absolute Pressure Temperature Relative Humidity Dew Point   
(mb) (inHg) (mb) (inHg) (C) (F) (%) (C) (F)
00:05 1023 30.21 852 25.16 -3.5 25.7 52 -12 10.4
00:10 1023 30.21 852 25.16 -3.9 25 53 -12.2 10
00:15 1023 30.21 852 25.16 -4.1 24.5 54 -12.1 10.3
00:20 1023 30.21 852 25.16 -4.3 24.3 55 -12.1 10.2
00:25 1023 30.21 852 25.16 -4.5 24 55 -12.1 10.2
00:30 1023 30.21 852 25.16 -4.4 24.1 51 -13.1 8.4
00:35 1023 30.21 852 25.16 -4 24.7 54 -12 10.3
00:40 1023 30.21 852 25.16 -4.6 23.8 51 -13.3 8.1
00:45 1023 30.21 852 25.16 -4.4 24.1 49 -13.5 7.6
00:50 1023 30.21 852 25.16 -4.4 24 50 -13.4 7.8
00:55 1023 30.21 852 25.16 -5 23 52 -13.4 7.8
01:00 1023 30.21 852 25.16 -5.4 22.3 53 -13.5 7.6
01:05 1023 30.21 852 25.16 -5.6 21.9 54 -13.5 7.7
01:10 1023 30.21 852 25.16 -5.6 21.8 54 -13.5 7.8
01:15 1023 30.21 852 25.16 -5.5 22 54 -13.5 7.8
01:20 1023 30.21 852 25.16 -5.4 22.3 54 -13.3 8
01:25 1023 30.21 852 25.16 -5.2 22.6 53 -13.5 7.8
01:30 1023 30.21 852 25.16 -5 23 52 -13.4 7.9
01:35 1023 30.21 852 25.16 -4.9 23.1 52 -13.4 7.8
01:40 1023 30.21 852 25.16 -4.6 23.7 50 -13.5 7.8
01:45 1023 30.21 852 25.16 -4.4 24.1 50 -13.2 8.2
01:50 1023 30.21 852 25.16 -4.4 24.1 50 -13.3 8.1
01:55 1023 30.21 852 25.16 -4.7 23.5 51 -13.3 8
02:00 1023 30.21 852 25.16 -4.7 23.5 51 -13.3 8
02:05 1023 30.21 852 25.16 -4.7 23.6 51 -13.4 7.8
02:10 1023 30.21 852 25.16 -4.6 23.7 51 -13.4 8
02:15 1023 30.21 852 25.16 -4.6 23.8 51 -13.3 8.1
02:20 1023 30.21 852 25.16 -4.6 23.7 51 -13.4 7.9
02:25 1023 30.21 852 25.16 -4.6 23.6 51 -13.4 7.8
02:30 1023 30.21 852 25.16 -4.6 23.8 50 -13.4 7.9
02:35 1023 30.21 853 25.19 -4.7 23.6 51 -13.3 8.1
02:40 1023 30.21 853 25.19 -4.6 23.7 51 -13.2 8.2
02:45 1023 30.21 853 25.19 -4.3 24.3 51 -13.1 8.4
02:50 1024 30.24 853 25.19 -4.7 23.5 53 -13 8.7
02:55 1024 30.24 853 25.19 -5 23.1 54 -12.9 8.8
03:00 1024 30.24 853 25.19 -5.3 22.5 57 -12.5 9.6
03:05 1024 30.24 853 25.19 -5.5 22.1 59 -12.2 10
03:10 1024 30.24 853 25.19 -5.8 21.6 62 -11.9 10.5
03:15 1024 30.24 853 25.19 -6.3 20.7 65 -11.8 10.8
03:20 1024 30.24 853 25.19 -6.4 20.4 66 -11.7 10.9
03:25 1024 30.24 853 25.19 -6.2 20.8 67 -11.3 11.6
03:30 1024 30.24 853 25.19 -6.1 21.1 66 -11.3 11.6
03:35 1024 30.24 853 25.19 -6.3 20.6 68 -11.3 11.6
03:40 1024 30.24 853 25.19 -6.1 21 68 -11.2 11.9
03:45 1024 30.24 853 25.19 -5.9 21.3 68 -10.9 12.4
03:50 1024 30.24 853 25.19 -5.6 21.9 67 -10.9 12.4
03:55 1024 30.24 853 25.19 -5.1 22.9 64 -10.8 12.6
04:00 1024 30.24 853 25.19 -5.2 22.7 64 -10.9 12.3
04:05 1024 30.24 853 25.19 -5.7 21.7 63 -11.6 11.1
04:10 1024 30.24 853 25.19 -6.1 20.9 63 -12.1 10.3
04:15 1024 30.24 853 25.19 -6.2 20.8 61 -12.5 9.5
04:20 1024 30.24 853 25.19 -5.9 21.3 62 -12.2 10.1
04:25 1024 30.24 853 25.19 -5.9 21.3 61 -12.4 9.7
04:30 1024 30.24 853 25.19 -5.6 21.9 59 -12.3 9.8
04:35 1024 30.24 853 25.19 -5.9 21.4 61 -12.2 10
04:40 1024 30.24 853 25.19 -5.9 21.5 61 -12.3 9.9
04:45 1024 30.24 853 25.19 -5.8 21.5 61 -12.2 10
04:50 1024 30.24 853 25.19 -5.7 21.8 60 -12.2 10
04:55 1024 30.24 853 25.19 -5.4 22.2 60 -12 10.4
05:00 1024 30.24 853 25.19 -5.5 22.2 60 -12 10.3
05:05 1024 30.24 854 25.22 -5.5 22.2 61 -11.8 10.7
05:10 1024 30.24 854 25.22 -5.5 22 62 -11.7 10.9
05:15 1024 30.24 854 25.22 -5.5 22.1 63 -11.5 11.2
05:20 1024 30.24 853 25.19 -5.3 22.5 62 -11.5 11.2
05:25 1024 30.24 853 25.19 -5.2 22.7 66 -10.5 13
05:30 1024 30.24 853 25.19 -5 23 67 -10.3 13.5
05:35 1024 30.24 853 25.19 -4.9 23.2 66 -10.3 13.4
05:40 1024 30.24 853 25.19 -4.8 23.3 65 -10.4 13.3
05:45 1024 30.24 854 25.22 -5.3 22.4 66 -10.8 12.6
05:50 1024 30.24 854 25.22 -5.7 21.8 65 -11.2 11.8
05:55 1024 30.24 854 25.22 -6.1 21 65 -11.6 11.1
06:00 1024 30.24 854 25.22 -6.5 20.4 66 -11.8 10.8
06:05 1024 30.24 854 25.22 -6.4 20.4 66 -11.8 10.7
06:10 1024 30.24 854 25.22 -6.3 20.6 66 -11.8 10.8
06:15 1024 30.24 854 25.22 -6.4 20.5 66 -11.7 11
06:20 1024 30.24 854 25.22 -6.5 20.4 69 -11.3 11.7
06:25 1024 30.24 854 25.22 -6.2 20.8 67 -11.5 11.4
06:30 1024 30.24 854 25.22 -6.1 21.1 65 -11.6 11.1
06:35 1025 30.27 854 25.22 -6.2 20.8 66 -11.6 11.1
06:40 1025 30.27 854 25.22 -6.3 20.7 68 -11.3 11.6
06:45 1025 30.27 854 25.22 -6 21.2 66 -11.4 11.4
06:50 1025 30.27 854 25.22 -5.6 21.9 66 -11 12.1
06:55 1025 30.27 854 25.22 -5.5 22 66 -10.9 12.4
07:00 1025 30.27 854 25.22 -6 21.3 69 -10.8 12.6
07:05 1025 30.27 854 25.22 -6.4 20.5 72 -10.7 12.8
07:10 1025 30.27 854 25.22 -6 21.3 68 -10.9 12.4
07:15 1025 30.27 854 25.22 -6.1 21.1 70 -10.7 12.8
07:20 1025 30.27 854 25.22 -6.5 20.3 71 -10.9 12.4
07:25 1025 30.27 854 25.22 -6.3 20.6 70 -11 12.3
07:30 1025 30.27 854 25.22 -6.5 20.3 72 -10.7 12.7
07:35 1025 30.27 854 25.22 -6.3 20.7 70 -11 12.3
07:40 1025 30.27 854 25.22 -6 21.2 68 -11 12.2
07:45 1025 30.27 854 25.22 -5.8 21.6 68 -10.8 12.5
07:50 1025 30.27 854 25.22 -5.5 22.1 65 -11 12.2
07:55 1025 30.27 854 25.22 -5.4 22.3 66 -10.8 12.5
08:00 1025 30.27 854 25.22 -5.7 21.7 67 -11 12.2
08:05 1025 30.27 854 25.22 -5.3 22.4 66 -10.7 12.7
08:10 1025 30.27 854 25.22 -5.2 22.6 68 -10.2 13.7
08:15 1025 30.27 854 25.22 -5.2 22.7 67 -10.4 13.2
08:20 1025 30.27 854 25.22 -5 23 64 -10.7 12.7
08:25 1025 30.27 854 25.22 -4.9 23.2 65 -10.5 13
08:30 1025 30.27 854 25.22 -4.9 23.3 64 -10.6 12.8
08:35 1025 30.27 854 25.22 -4.9 23.2 63 -10.9 12.3
08:40 1025 30.27 854 25.22 -5.8 21.6 68 -10.7 12.7
08:45 1025 30.27 854 25.22 -6.5 20.3 71 -11 12.1
08:50 1025 30.27 854 25.22 -6.3 20.6 68 -11.2 11.8
08:55 1025 30.27 854 25.22 -6.6 20.2 70 -11.1 12
09:00 1025 30.27 854 25.22 -7 19.5 73 -11.1 12
09:05 1025 30.27 854 25.22 -7 19.4 72 -11.2 11.8
09:10 1025 30.27 854 25.22 -6.6 20.1 69 -11.4 11.5
09:15 1025 30.27 854 25.22 -6 21.3 66 -11.3 11.7
09:20 1025 30.27 854 25.22 -5.9 21.3 67 -11.2 11.9
09:25 1025 30.27 854 25.22 -5.9 21.4 67 -11 12.1
09:30 1025 30.27 855 25.25 -5.8 21.6 67 -11 12.3
09:35 1025 30.27 855 25.25 -6 21.2 67 -11.1 12
09:40 1025 30.27 855 25.25 -5.9 21.4 66 -11.3 11.6
09:45 1026 30.3 855 25.25 -5.7 21.8 66 -11.1 12.1
09:50 1026 30.3 855 25.25 -5.2 22.7 64 -11 12.1
09:55 1026 30.3 855 25.25 -4.6 23.7 61 -11 12.1
10:00 1026 30.3 855 25.25 -5.2 22.6 65 -10.9 12.4
10:05 1026 30.3 855 25.25 -5.8 21.6 66 -11.2 11.8
10:10 1026 30.3 855 25.25 -5.7 21.7 66 -11.1 11.9
10:15 1026 30.3 855 25.25 -5.1 22.8 62 -11.3 11.7
10:20 1026 30.3 855 25.25 -4.6 23.7 60 -11.1 11.9
10:25 1026 30.3 855 25.25 -4.5 23.9 59 -11.3 11.7
10:30 1026 30.3 855 25.25 -4.4 24.1 60 -11 12.2
10:35 1026 30.3 855 25.25 -4 24.9 58 -11.1 12.1
10:40 1026 30.3 855 25.25 -3.3 26 55 -11.1 12.1
10:45 1026 30.3 855 25.25 -3 26.5 56 -10.6 13
10:50 1026 30.3 855 25.25 -3.5 25.8 57 -10.8 12.6
10:55 1026 30.3 855 25.25 -3.4 25.9 56 -11 12.3
11:00 1026 30.3 855 25.25 -3.6 25.5 57 -10.8 12.5
11:05 1026 30.3 855 25.25 -3.7 25.4 58 -10.9 12.4
11:10 1026 30.3 855 25.25 -3.4 25.8 56 -11 12.3
11:15 1026 30.3 855 25.25 -3.2 26.2 56 -10.9 12.4
11:20 1026 30.3 855 25.25 -2.8 26.9 54 -11 12.3
11:25 1026 30.3 855 25.25 -2.2 28.1 52 -10.8 12.6
11:30 1026 30.3 855 25.25 -2.3 27.8 52 -10.9 12.5
11:35 1026 30.3 855 25.25 -2.7 27.1 54 -10.8 12.5
11:40 1026 30.3 855 25.25 -2.6 27.3 53 -10.9 12.4
11:45 1026 30.3 855 25.25 -2 28.4 51 -10.9 12.5
11:50 1026 30.3 855 25.25 -2.1 28.2 53 -10.6 13
11:55 1026 30.3 855 25.25 -2.3 27.9 51 -11 12.2
12:00 1026 30.3 855 25.25 -2.3 27.9 51 -11.1 12.1
12:05 1026 30.3 855 25.25 -1.6 29.1 49 -10.9 12.4
12:10 1026 30.3 855 25.25 -1.1 30 49 -10.6 12.9
12:15 1026 30.3 855 25.25 -1.2 29.8 47 -11 12.2
12:20 1025 30.27 855 25.25 -1.8 28.7 52 -10.4 13.2
12:25 1025 30.27 855 25.25 -2.7 27.2 52 -11.2 11.9
12:30 1025 30.27 854 25.22 -2.7 27.1 53 -11.1 12
12:35 1025 30.27 854 25.22 -2.8 27 54 -10.9 12.3
12:40 1025 30.27 854 25.22 -3.1 26.5 54 -11.1 11.9
12:45 1025 30.27 854 25.22 -3.2 26.3 54 -11.3 11.7
12:50 1025 30.27 854 25.22 -2.7 27.2 52 -11.2 11.8
12:55 1025 30.27 854 25.22 -1.8 28.7 50 -10.9 12.4
13:00 1025 30.27 854 25.22 -2.2 28 51 -11 12.2
13:05 1025 30.27 854 25.22 -2 28.4 50 -11 12.1
13:10 1025 30.27 854 25.22 -1.2 29.9 47 -11.1 12.1
13:15 1025 30.27 854 25.22 -0.5 31.1 45 -11 12.2
13:20 1025 30.27 854 25.22 -0.1 31.8 45 -10.8 12.6
13:25 1025 30.27 854 25.22 -0.3 31.5 46 -10.6 12.9
13:30 1025 30.27 854 25.22 -0.2 31.7 45 -10.8 12.6
13:35 1024 30.24 854 25.22 0.1 32.1 44 -10.9 12.5
13:40 1024 30.24 854 25.22 -0.8 30.5 48 -10.4 13.2
13:45 1024 30.24 854 25.22 -1.5 29.2 49 -11 12.1
13:50 1024 30.24 854 25.22 -0.3 31.5 45 -10.9 12.3
13:55 1024 30.24 854 25.22 -0.1 31.9 42 -11.5 11.3
14:00 1024 30.24 853 25.19 -0.8 30.5 45 -11.4 11.4
14:05 1024 30.24 853 25.19 -1.3 29.6 46 -11.5 11.2
14:10 1024 30.24 853 25.19 -1.5 29.2 46 -11.7 10.9
14:15 1024 30.24 853 25.19 -1.4 29.5 45 -11.9 10.6
14:20 1024 30.24 853 25.19 -1.1 30.1 46 -11.2 11.8
14:25 1024 30.24 853 25.19 -1.2 29.9 47 -11.2 11.9
14:30 1024 30.24 853 25.19 -1.5 29.3 48 -11.1 12
14:35 1024 30.24 853 25.19 -0.9 30.4 44 -11.6 11.2
14:40 1024 30.24 853 25.19 -0.1 31.9 41 -11.7 11
14:45 1024 30.24 853 25.19 0.1 32.2 43 -11.1 12.1
14:50 1024 30.24 853 25.19 -0.5 31.1 44 -11.3 11.6
14:55 1024 30.24 853 25.19 -0.5 31.1 45 -11 12.1
15:00 1024 30.24 853 25.19 -0.8 30.6 45 -11.3 11.7
15:05 1024 30.24 853 25.19 -0.7 30.7 44 -11.6 11.2
15:10 1024 30.24 853 25.19 -0.6 31 45 -11.1 12.1
15:15 1024 30.24 853 25.19 -0.4 31.3 43 -11.4 11.4
15:20 1024 30.24 853 25.19 -0 32 43 -11.2 11.8
15:25 1024 30.24 853 25.19 -1 30.3 46 -11.1 12
15:30 1024 30.24 853 25.19 -1.4 29.5 47 -11.3 11.7
15:35 1024 30.24 853 25.19 -1.3 29.6 47 -11.2 11.8
15:40 1024 30.24 853 25.19 -1.4 29.4 46 -11.6 11.1
15:45 1024 30.24 853 25.19 -1.4 29.6 48 -11.1 12
15:50 1024 30.24 853 25.19 -1.2 29.8 45 -11.7 10.9
15:55 1024 30.24 853 25.19 -1.2 29.8 46 -11.4 11.6
16:00 1024 30.24 853 25.19 -1.2 29.9 45 -11.6 11.2
16:05 1023 30.21 853 25.19 -0.7 30.8 45 -11.2 11.8
16:10 1023 30.21 853 25.19 -0.5 31.1 45 -11.1 12.1
16:15 1023 30.21 853 25.19 -0.4 31.3 44 -11.3 11.6
16:20 1023 30.21 853 25.19 0.1 32.2 42 -11.4 11.4
16:25 1023 30.21 853 25.19 0.2 32.4 42 -11.1 12
16:30 1023 30.21 852 25.16 -0.3 31.5 43 -11.4 11.5
16:35 1023 30.21 852 25.16 -0.6 30.8 46 -11 12.2
16:40 1023 30.21 852 25.16 -1.5 29.3 47 -11.3 11.6
16:45 1023 30.21 852 25.16 -1.8 28.7 48 -11.3 11.6
16:50 1023 30.21 852 25.16 -1.6 29.2 47 -11.4 11.4
16:55 1023 30.21 852 25.16 -1.4 29.4 48 -11.2 11.8
17:00 1023 30.21 852 25.16 -1.4 29.4 47 -11.3 11.6
17:05 1023 30.21 852 25.16 -1.7 28.9 49 -11 12.1
17:10 1023 30.21 852 25.16 -2 28.4 50 -11.2 11.9
17:15 1023 30.21 852 25.16 -2.2 28.1 51 -11.1 12.1
17:20 1023 30.21 852 25.16 -2.3 27.9 50 -11.3 11.7
17:25 1023 30.21 852 25.16 -2 28.4 50 -11.1 12.1
17:30 1023 30.21 852 25.16 -2.1 28.3 51 -11 12.3
17:35 1023 30.21 852 25.16 -2.3 27.8 52 -11 12.3
17:40 1023 30.21 852 25.16 -2.7 27.1 53 -11 12.3
17:45 1023 30.21 852 25.16 -3.4 26 56 -10.9 12.4
17:50 1023 30.21 852 25.16 -4 24.8 57 -11.2 11.8
17:55 1023 30.21 852 25.16 -4.3 24.3 58 -11.3 11.7
18:00 1023 30.21 852 25.16 -4.4 24.1 59 -11.3 11.6
18:05 1023 30.21 852 25.16 -4.6 23.8 59 -11.5 11.4
18:10 1023 30.21 852 25.16 -4.7 23.6 60 -11.4 11.5
18:15 1022 30.18 852 25.16 -4.8 23.3 59 -11.6 11.1
18:20 1022 30.18 852 25.16 -5.1 22.9 60 -11.6 11.2
18:25 1022 30.18 852 25.16 -4.9 23.2 60 -11.4 11.4
18:30 1022 30.18 852 25.16 -4.9 23.2 60 -11.5 11.3
18:35 1022 30.18 852 25.16 -4.8 23.4 60 -11.4 11.4
18:40 1022 30.18 852 25.16 -4.8 23.4 60 -11.3 11.6
18:45 1022 30.18 852 25.16 -4.8 23.3 60 -11.4 11.5
18:50 1022 30.18 852 25.16 -5 23 61 -11.4 11.4
18:55 1022 30.18 852 25.16 -5.1 22.9 62 -11.3 11.7
19:00 1022 30.18 851 25.13 -5.3 22.5 62 -11.4 11.5
19:05 1022 30.18 851 25.13 -6 21.3 64 -11.7 10.9
19:10 1022 30.18 851 25.13 -6.8 19.8 68 -11.7 11
19:15 1022 30.18 851 25.13 -6.8 19.7 68 -11.8 10.8
19:20 1022 30.18 851 25.13 -7.1 19.2 68 -12 10.4
19:25 1022 30.18 851 25.13 -7.3 18.8 70 -12 10.4
19:30 1022 30.18 851 25.13 -6.7 19.9 67 -11.9 10.6
19:35 1022 30.18 851 25.13 -6.2 20.8 67 -11.4 11.4
19:40 1022 30.18 851 25.13 -6.1 21 67 -11.4 11.5
19:45 1022 30.18 851 25.13 -5.9 21.4 65 -11.4 11.5
19:50 1022 30.18 851 25.13 -5.9 21.3 66 -11.4 11.5
19:55 1022 30.18 851 25.13 -6.2 20.8 67 -11.4 11.4
20:00 1022 30.18 851 25.13 -6.1 21.1 67 -11.3 11.6
20:05 1022 30.18 851 25.13 -5.9 21.4 66 -11.3 11.6
20:10 1022 30.18 851 25.13 -5.6 21.9 64 -11.3 11.7
20:15 1022 30.18 851 25.13 -5.8 21.6 65 -11.3 11.7
20:20 1022 30.18 851 25.13 -6.1 21 66 -11.4 11.4
20:25 1022 30.18 851 25.13 -6.1 21 65 -11.7 11
20:30 1022 30.18 851 25.13 -6.1 21 66 -11.5 11.3
20:35 1022 30.18 851 25.13 -6 21.3 64 -11.7 11
20:40 1022 30.18 851 25.13 -6.1 21 66 -11.5 11.4
20:45 1022 30.18 851 25.13 -6.6 20.2 66 -11.9 10.5
20:50 1022 30.18 851 25.13 -6.8 19.7 68 -11.8 10.8
20:55 1022 30.18 851 25.13 -6.6 20.1 67 -11.7 10.9
21:00 1022 30.18 851 25.13 -6.5 20.4 67 -11.7 11
21:05 1022 30.18 851 25.13 -6.1 20.9 67 -11.2 11.8
21:10 1022 30.18 851 25.13 -5.8 21.5 65 -11.4 11.5
21:15 1021 30.15 851 25.13 -5.6 21.9 63 -11.5 11.3
21:20 1021 30.15 851 25.13 -5.8 21.5 65 -11.5 11.3
21:25 1021 30.15 851 25.13 -5.8 21.6 62 -11.9 10.5
21:30 1021 30.15 851 25.13 -5.9 21.4 63 -11.8 10.8
21:35 1021 30.15 851 25.13 -6 21.3 62 -12.1 10.3
21:40 1021 30.15 850 25.1 -5.9 21.5 62 -12 10.4
21:45 1021 30.15 850 25.1 -6 21.2 61 -12.4 9.6
21:50 1021 30.15 850 25.1 -6 21.1 61 -12.4 9.7
21:55 1021 30.15 850 25.1 -6.1 21 61 -12.4 9.7
22:00 1021 30.15 850 25.1 -6.3 20.7 63 -12.3 9.9
22:05 1021 30.15 850 25.1 -6.3 20.6 64 -12.1 10.2
22:10 1021 30.15 850 25.1 -6.2 20.8 63 -12.3 9.9
22:15 1021 30.15 850 25.1 -5.8 21.6 62 -12 10.4
22:20 1021 30.15 850 25.1 -5.4 22.2 59 -12.1 10.2
22:25 1021 30.15 850 25.1 -6.2 20.9 64 -11.9 10.6
22:30 1021 30.15 850 25.1 -5.9 21.3 63 -11.9 10.6
22:35 1021 30.15 850 25.1 -5.1 22.7 60 -11.8 10.7
22:40 1020 30.12 850 25.1 -4.9 23.2 55 -12.7 9.2
22:45 1020 30.12 850 25.1 -4.6 23.8 54 -12.4 9.6
22:50 1020 30.12 850 25.1 -4.9 23.2 57 -12.2 10.1
22:55 1020 30.12 849 25.07 -5.1 22.8 59 -11.8 10.7
23:00 1020 30.12 849 25.07 -5.5 22.1 60 -12.1 10.2
23:05 1020 30.12 849 25.07 -5.7 21.8 61 -12 10.4
23:10 1020 30.12 849 25.07 -6 21.2 61 -12.3 9.8
23:15 1020 30.12 849 25.07 -6.4 20.5 64 -12.1 10.1
23:20 1020 30.12 849 25.07 -6.5 20.4 64 -12.3 9.9
23:25 1020 30.12 849 25.07 -6.3 20.6 62 -12.5 9.4
23:30 1020 30.12 849 25.07 -6.2 20.8 60 -12.8 9
23:35 1020 30.12 849 25.07 -5.7 21.7 60 -12.2 10
23:40 1020 30.12 849 25.07 -4.9 23.2 56 -12.4 9.7
23:45 1020 30.12 849 25.07 -5.4 22.3 59 -12.1 10.2
23:50 1020 30.12 849 25.07 -6 21.1 62 -12.3 9.9
23:55 1020 30.12 849 25.07 -6.1 20.9 60 -12.6 9.3
24:00 1020 30.12 849 25.07 -5.7 21.7 58 -12.7 9.1